Time;durP1;ratioP1;P1;durP2;ratioP2;P2;SDS_P1;SDS_P2;PMS_P1;PMS_P2;Temp;Humidity;BMP_temperature;BMP_pressure;BME280_temperature;BME280_humidity;BME280_pressure;Samples;Min_cycle;Max_cycle;Signal;HPM_P1;HPM_P2
2021/12/19 00:02:45;;;;;;;28.70;13.00;;;4.60;99.90;;;;;;5053795;28;20068;-66
2021/12/19 00:10:39;;;;;;;23.98;11.48;;;4.60;99.90;;;;;;5054020;28;20114;-66
2021/12/19 00:13:06;;;;;;;29.27;12.30;;;4.60;99.90;;;;;;5053838;28;20075;-65
2021/12/19 00:15:32;;;;;;;24.20;11.65;;;4.50;99.90;;;;;;5053609;28;20032;-65
2021/12/19 00:17:58;;;;;;;22.97;12.00;;;4.50;99.90;;;;;;5036647;28;20025;-65
2021/12/19 00:20:33;;;;;;;26.93;11.27;;;4.60;99.90;;;;;;5054428;28;20021;-66
2021/12/19 00:22:59;;;;;;;27.15;12.20;;;4.50;99.90;;;;;;5053828;28;20052;-66
2021/12/19 00:25:24;;;;;;;24.73;10.63;;;4.50;99.90;;;;;;5035855;28;20017;-65
2021/12/19 00:27:50;;;;;;;24.80;11.27;;;4.50;99.90;;;;;;5035338;28;20021;-65
2021/12/19 00:30:15;;;;;;;26.33;11.47;;;4.50;99.90;;;;;;5053367;28;20424;-65
2021/12/19 00:32:41;;;;;;;26.97;11.50;;;4.60;99.90;;;;;;5035816;28;20025;-65
2021/12/19 00:35:08;;;;;;;26.53;12.63;;;4.60;99.90;;;;;;5053753;28;20057;-66
2021/12/19 00:37:33;;;;;;;28.90;12.27;;;4.70;99.90;;;;;;5037176;28;20454;-65
2021/12/19 00:39:59;;;;;;;25.20;11.67;;;4.70;99.90;;;;;;5053085;28;20060;-65
2021/12/19 00:42:27;;;;;;;29.93;13.00;;;4.70;99.90;;;;;;5052684;28;20029;-65
2021/12/19 00:44:53;;;;;;;25.23;11.40;;;4.70;99.90;;;;;;5053384;28;20025;-65
2021/12/19 00:47:19;;;;;;;27.42;11.85;;;4.60;99.90;;;;;;5052914;28;20075;-66
2021/12/19 00:49:44;;;;;;;23.58;10.90;;;4.70;99.90;;;;;;5053294;28;20025;-65
2021/12/19 00:52:10;;;;;;;23.13;10.23;;;4.70;99.90;;;;;;5053005;28;20481;-65
2021/12/19 00:54:36;;;;;;;23.17;10.27;;;4.70;99.90;;;;;;5052767;28;20166;-66
2021/12/19 00:57:02;;;;;;;20.60;10.43;;;4.60;99.90;;;;;;5034907;28;20123;-65
2021/12/19 00:59:27;;;;;;;24.58;10.48;;;4.70;99.90;;;;;;5052495;28;20037;-65
2021/12/19 01:01:53;;;;;;;24.97;10.57;;;4.70;99.90;;;;;;5052927;28;20036;-65
2021/12/19 01:04:20;;;;;;;20.97;9.50;;;4.70;99.90;;;;;;5052611;28;20126;-65
2021/12/19 01:06:47;;;;;;;20.83;9.73;;;4.60;99.90;;;;;;5052675;28;20021;-65
2021/12/19 01:09:14;;;;;;;20.17;9.82;;;4.70;99.90;;;;;;5052568;28;20025;-66
2021/12/19 01:11:40;;;;;;;22.02;10.02;;;4.70;99.90;;;;;;5052356;28;20052;-66
2021/12/19 01:14:08;;;;;;;21.13;9.52;;;4.70;99.90;;;;;;5052669;28;20028;-66
2021/12/19 01:16:34;;;;;;;25.20;9.77;;;4.70;99.90;;;;;;5052505;28;20054;-66
2021/12/19 01:19:00;;;;;;;18.57;8.33;;;4.70;99.90;;;;;;5052625;28;20473;-66
2021/12/19 01:21:25;;;;;;;16.13;8.37;;;4.70;99.90;;;;;;5053083;28;20280;-66
2021/12/19 01:23:51;;;;;;;18.63;9.03;;;4.70;99.90;;;;;;5053227;28;20395;-66
2021/12/19 01:26:17;;;;;;;18.70;9.03;;;4.80;99.90;;;;;;5034867;28;20025;-66
2021/12/19 01:28:42;;;;;;;22.77;11.00;;;4.80;99.90;;;;;;5052628;28;20678;-66
2021/12/19 01:31:09;;;;;;;23.30;10.70;;;4.80;99.90;;;;;;5052316;28;20028;-66
2021/12/19 01:33:36;;;;;;;23.50;11.02;;;4.80;99.90;;;;;;5052430;28;20029;-66
2021/12/19 01:36:03;;;;;;;22.48;10.35;;;4.80;99.90;;;;;;5052338;28;20187;-65
2021/12/19 01:38:30;;;;;;;18.70;9.85;;;4.90;99.90;;;;;;5052394;28;20071;-65
2021/12/19 01:40:56;;;;;;;20.02;9.48;;;4.80;99.90;;;;;;5052034;28;20389;-65
2021/12/19 01:43:24;;;;;;;22.70;10.77;;;4.80;99.90;;;;;;5052139;28;20112;-65
2021/12/19 01:45:50;;;;;;;23.75;11.05;;;4.60;99.90;;;;;;5034251;28;20029;-65
2021/12/19 01:48:16;;;;;;;24.10;10.65;;;4.50;99.90;;;;;;5034365;28;20031;-65
2021/12/19 01:50:42;;;;;;;23.43;10.83;;;4.40;99.90;;;;;;5055742;28;20100;-65
2021/12/19 01:53:11;;;;;;;29.33;11.52;;;4.40;99.90;;;;;;5056319;28;20023;-65
2021/12/19 01:55:37;;;;;;;24.65;11.18;;;4.30;99.90;;;;;;5053091;28;20029;-65
2021/12/19 01:58:03;;;;;;;27.75;10.75;;;4.30;99.90;;;;;;5052873;28;20042;-65
2021/12/19 02:00:33;;;;;;;23.60;10.88;;;4.20;99.90;;;;;;5052215;28;20033;-65
2021/12/19 02:03:02;;;;;;;22.17;10.35;;;4.10;99.90;;;;;;5034344;28;20025;-66
2021/12/19 02:05:28;;;;;;;27.08;11.38;;;4.10;99.90;;;;;;5055782;28;20067;-66
2021/12/19 02:07:55;;;;;;;24.50;11.32;;;4.10;99.90;;;;;;5056064;28;20013;-65
2021/12/19 02:10:25;;;;;;;26.77;11.93;;;4.10;99.90;;;;;;5056156;28;20036;-66
2021/12/19 02:12:52;;;;;;;23.52;11.65;;;4.00;99.90;;;;;;5037711;28;20114;-66
2021/12/19 02:15:21;;;;;;;26.17;11.82;;;4.00;99.90;;;;;;5055793;28;20021;-66
2021/12/19 02:17:48;;;;;;;26.20;11.38;;;4.00;99.90;;;;;;5056093;28;20108;-66
2021/12/19 02:20:16;;;;;;;26.27;11.13;;;4.00;99.90;;;;;;5055867;28;20028;-65
2021/12/19 02:22:42;;;;;;;26.80;11.15;;;4.00;99.90;;;;;;5055455;28;20062;-65
2021/12/19 02:25:08;;;;;;;;;;;3.90;99.90;;;;;;5056263;28;20080;-65
2021/12/19 02:27:33;;;;;;;24.15;10.30;;;3.90;99.90;;;;;;5055649;28;20328;-65
2021/12/19 02:29:59;;;;;;;24.43;10.40;;;3.80;99.90;;;;;;5055829;28;20048;-65
2021/12/19 02:32:28;;;;;;;27.52;11.70;;;3.80;99.90;;;;;;5056986;28;20049;-65
2021/12/19 02:34:57;;;;;;;26.00;10.88;;;3.90;99.90;;;;;;5037639;28;20463;-66
2021/12/19 02:40:25;;;;;;;23.83;10.85;;;3.80;99.90;;;;;;5055526;28;20025;-64
2021/12/19 02:48:20;;;;;;;19.27;9.05;;;3.80;99.90;;;;;;5055874;28;20032;-66
2021/12/19 02:50:49;;;;;;;;;;;3.80;99.90;;;;;;5055810;28;20025;-66
2021/12/19 02:53:19;;;;;;;18.85;8.75;;;3.80;99.90;;;;;;5054936;28;19911;-65
2021/12/19 02:55:45;;;;;;;19.73;8.48;;;3.90;99.90;;;;;;5054796;28;20025;-65
2021/12/19 02:58:11;;;;;;;20.70;9.07;;;4.10;99.90;;;;;;5036720;28;20025;-65
2021/12/19 03:00:37;;;;;;;17.65;8.60;;;4.10;99.90;;;;;;5037462;28;20025;-65
2021/12/19 03:03:03;;;;;;;16.52;7.97;;;4.20;99.90;;;;;;5054485;28;20079;-64
2021/12/19 03:05:32;;;;;;;16.67;7.17;;;4.30;99.90;;;;;;5054671;28;20036;-65
2021/12/19 03:07:58;;;;;;;14.57;6.78;;;4.60;99.90;;;;;;5054545;28;20362;-65
2021/12/19 03:18:18;;;;;;;13.45;6.38;;;4.80;99.90;;;;;;5055408;28;20066;-65
2021/12/19 03:20:44;;;;;;;14.83;6.80;;;4.80;99.90;;;;;;5054330;28;20028;-65
2021/12/19 03:23:12;;;;;;;12.88;6.00;;;4.80;99.90;;;;;;5054261;28;20029;-64
2021/12/19 03:25:38;;;;;;;10.43;5.45;;;5.10;99.90;;;;;;5036382;28;20275;-65
2021/12/19 03:28:05;;;;;;;12.20;5.55;;;5.00;99.90;;;;;;5036375;28;20111;-65
2021/12/19 03:30:32;;;;;;;11.18;6.20;;;4.80;99.90;;;;;;5054343;28;20539;-65
2021/12/19 03:32:58;;;;;;;11.88;5.45;;;4.70;99.90;;;;;;5054199;28;20029;-65
2021/12/19 03:35:25;;;;;;;10.97;5.83;;;4.60;99.90;;;;;;5054044;28;20017;-65
2021/12/19 03:37:51;;;;;;;;;;;4.60;99.90;;;;;;5054766;28;20416;-65
2021/12/19 03:40:23;;;;;;;10.63;5.20;;;4.50;99.90;;;;;;5053824;28;19905;-65
2021/12/19 03:42:51;;;;;;;11.63;5.63;;;4.50;99.90;;;;;;5076870;22;20090;-63
2021/12/19 03:45:23;;;;;;;12.48;6.13;;;4.50;99.90;;;;;;5054732;28;20017;-64
2021/12/19 03:47:49;;;;;;;15.90;5.93;;;4.60;99.90;;;;;;5037244;28;20017;-64
2021/12/19 03:50:20;;;;;;;9.80;5.38;;;4.70;99.90;;;;;;5054664;28;20021;-64
2021/12/19 03:52:46;;;;;;;9.15;4.75;;;4.70;99.90;;;;;;5036862;28;20033;-65
2021/12/19 03:55:11;;;;;;;10.27;5.90;;;4.60;99.90;;;;;;5054517;28;20078;-64
2021/12/19 03:57:37;;;;;;;9.65;5.22;;;4.50;99.90;;;;;;5054269;28;20029;-64
2021/12/19 04:00:10;;;;;;;9.43;5.20;;;4.30;99.90;;;;;;5054493;28;20037;-63
2021/12/19 04:02:36;;;;;;;9.77;4.78;;;4.50;99.90;;;;;;5055057;28;20025;-64
2021/12/19 04:05:02;;;;;;;7.23;4.37;;;4.40;99.90;;;;;;5036361;28;20021;-64
2021/12/19 04:07:28;;;;;;;;;;;4.60;99.90;;;;;;5054543;28;20059;-65
2021/12/19 04:09:54;;;;;;;10.43;4.90;;;4.70;99.90;;;;;;5054981;28;19955;-65
2021/12/19 04:12:23;;;;;;;7.73;3.90;;;4.70;99.90;;;;;;5060442;28;20124;-64
2021/12/19 04:14:48;;;;;;;8.63;3.70;;;4.70;99.90;;;;;;5063705;28;20306;-63
2021/12/19 04:17:14;;;;;;;7.43;3.90;;;4.60;99.90;;;;;;5042366;28;20032;-63
2021/12/19 04:19:40;;;;;;;8.33;4.30;;;4.70;99.90;;;;;;5057495;28;20252;-64
2021/12/19 04:22:05;;;;;;;8.27;4.00;;;4.70;99.90;;;;;;5057756;28;20094;-63
2021/12/19 04:24:31;;;;;;;9.47;4.63;;;4.80;99.90;;;;;;5038432;28;20021;-62
2021/12/19 04:26:57;;;;;;;5.72;3.55;;;4.90;99.90;;;;;;5058031;28;20033;-65
2021/12/19 04:29:24;;;;;;;7.10;3.70;;;5.00;99.90;;;;;;5038915;28;20092;-64
2021/12/19 04:31:54;;;;;;;7.82;4.40;;;4.80;99.90;;;;;;5055124;28;20028;-64
2021/12/19 04:34:20;;;;;;;8.88;4.55;;;4.70;99.90;;;;;;5037070;28;20032;-62
2021/12/19 04:36:51;;;;;;;7.07;4.00;;;4.60;99.90;;;;;;5035741;28;20488;-63
2021/12/19 05:00:12;;;;;;;5.17;3.00;;;4.70;99.90;;;;;;5053162;28;20086;-65
2021/12/19 05:16:02;;;;;;;12.57;5.38;;;4.90;99.90;;;;;;5053781;28;20048;-65
2021/12/19 05:18:31;;;;;;;9.30;4.13;;;4.80;99.90;;;;;;5035101;28;20430;-64
2021/12/19 05:21:09;;;;;;;8.25;4.13;;;4.90;99.90;;;;;;5035113;28;20173;-63
2021/12/19 05:26:10;;;;;;;55.47;25.50;;;4.80;99.90;;;;;;5052907;28;20028;-64
2021/12/19 05:28:36;;;;;;;18.70;10.43;;;4.60;99.90;;;;;;5053271;28;20377;-64
2021/12/19 05:31:02;;;;;;;13.93;7.47;;;4.60;99.90;;;;;;5052972;28;20064;-64
2021/12/19 05:33:28;;;;;;;10.50;6.38;;;4.60;99.90;;;;;;5052848;28;20044;-64
2021/12/19 05:45:12;;;;;;;8.90;4.43;;;4.50;99.90;;;;;;5056635;28;20454;-64
2021/12/19 05:47:01;;;;;;;10.02;5.38;;;4.60;99.90;;;;;;5057324;28;20075;-64
2021/12/19 05:49:27;;;;;;;12.57;6.10;;;4.50;99.90;;;;;;5039854;28;20025;-65
2021/12/19 05:51:53;;;;;;;13.50;7.07;;;4.50;99.90;;;;;;5057068;28;20128;-63
2021/12/19 05:54:19;;;;;;;19.77;8.60;;;4.50;99.90;;;;;;5057455;28;20032;-64
2021/12/19 05:56:46;;;;;;;20.65;8.15;;;4.40;99.90;;;;;;5058767;28;20029;-64
2021/12/19 05:59:12;;;;;;;22.65;11.05;;;4.30;99.90;;;;;;5056694;28;20040;-64
2021/12/19 06:01:38;;;;;;;19.58;9.27;;;4.30;99.90;;;;;;5057022;28;20038;-64
2021/12/19 06:04:05;;;;;;;19.95;10.52;;;4.50;99.90;;;;;;5056702;28;20037;-63
2021/12/19 06:06:30;;;;;;;20.83;10.07;;;4.50;99.90;;;;;;5056244;28;20067;-64
2021/12/19 06:08:56;;;;;;;22.08;10.38;;;4.50;99.90;;;;;;5056684;28;20032;-63
2021/12/19 06:11:22;;;;;;;25.83;11.27;;;4.40;99.90;;;;;;5056443;28;20028;-65
2021/12/19 06:13:48;;;;;;;24.87;11.20;;;4.50;99.90;;;;;;5061874;28;20033;-65
2021/12/19 06:16:13;;;;;;;24.03;11.27;;;4.40;99.90;;;;;;5063607;28;20037;-64
2021/12/19 06:18:39;;;;;;;23.33;10.93;;;4.50;99.90;;;;;;5043351;28;20025;-64
2021/12/19 06:21:05;;;;;;;26.33;11.47;;;4.50;99.90;;;;;;5057731;28;20029;-64
2021/12/19 06:23:32;;;;;;;24.33;11.20;;;4.50;99.90;;;;;;5039116;28;20450;-64
2021/12/19 06:25:58;;;;;;;23.65;12.18;;;4.40;99.90;;;;;;5057101;28;20580;-63
2021/12/19 06:28:24;;;;;;;25.77;11.07;;;4.40;99.90;;;;;;5038099;28;20116;-65
2021/12/19 06:30:50;;;;;;;29.83;12.20;;;4.20;99.90;;;;;;5038342;28;20032;-64
2021/12/19 06:33:16;;;;;;;28.25;12.13;;;4.20;99.90;;;;;;5056396;28;20028;-64
2021/12/19 06:35:41;;;;;;;26.10;11.65;;;4.20;99.90;;;;;;5055741;28;20032;-65
2021/12/19 06:38:07;;;;;;;24.30;11.17;;;4.30;99.90;;;;;;5056097;28;20104;-65
2021/12/19 06:40:34;;;;;;;21.97;11.10;;;4.20;99.90;;;;;;5056046;28;20049;-63
2021/12/19 06:43:00;;;;;;;21.73;10.98;;;4.30;99.90;;;;;;5038126;28;20489;-63
2021/12/19 06:45:26;;;;;;;22.23;11.13;;;4.30;99.90;;;;;;5056033;28;20029;-65
2021/12/19 06:47:52;;;;;;;24.42;11.38;;;4.30;99.90;;;;;;5055862;28;20262;-64
2021/12/19 06:50:18;;;;;;;24.50;11.73;;;4.10;99.90;;;;;;5055414;28;20397;-64
2021/12/19 06:52:45;;;;;;;25.77;10.63;;;4.10;99.90;;;;;;5055413;28;20448;-64
2021/12/19 06:55:13;;;;;;;22.02;10.27;;;4.20;99.90;;;;;;5055858;28;20116;-64
2021/12/19 06:57:38;;;;;;;23.20;10.07;;;4.30;99.90;;;;;;5055882;28;20025;-64
2021/12/19 07:00:14;;;;;;;19.03;9.53;;;4.20;99.90;;;;;;5055505;28;20477;-64
2021/12/19 07:02:40;;;;;;;25.15;10.45;;;4.10;99.90;;;;;;5037382;28;20379;-64
2021/12/19 07:05:06;;;;;;;23.50;11.23;;;4.00;99.90;;;;;;5055271;28;20066;-64
2021/12/19 07:07:32;;;;;;;21.65;9.13;;;4.20;99.90;;;;;;5055982;28;20074;-64
2021/12/19 07:09:58;;;;;;;22.13;10.10;;;4.10;99.90;;;;;;5037236;28;20081;-66
2021/12/19 07:12:26;;;;;;;21.23;9.75;;;4.20;99.90;;;;;;5037123;28;20029;-64
2021/12/19 07:14:53;;;;;;;20.90;9.50;;;4.10;99.90;;;;;;5054979;28;20473;-64
2021/12/19 07:17:19;;;;;;;21.58;9.45;;;4.00;99.90;;;;;;5055325;28;20524;-65
2021/12/19 07:19:45;;;;;;;18.65;9.65;;;4.00;99.90;;;;;;5055138;28;20385;-63
2021/12/19 07:22:11;;;;;;;18.33;9.75;;;4.00;99.90;;;;;;5037482;28;20025;-65
2021/12/19 07:24:37;;;;;;;15.88;8.63;;;3.90;99.90;;;;;;5055729;28;20099;-64
2021/12/19 07:27:03;;;;;;;18.40;9.17;;;4.00;99.90;;;;;;5055927;28;20457;-68
2021/12/19 07:29:29;;;;;;;19.95;9.50;;;3.90;99.90;;;;;;5055470;28;20026;-69
2021/12/19 07:31:55;;;;;;;17.50;8.90;;;3.90;99.90;;;;;;5037254;28;20029;-70
2021/12/19 07:34:28;;;;;;;21.43;9.07;;;3.90;99.90;;;;;;5055159;28;20477;-68
2021/12/19 07:36:54;;;;;;;18.40;8.65;;;4.00;99.90;;;;;;5037330;28;20503;-68
2021/12/19 07:39:57;;;;;;;20.37;9.47;;;4.00;99.90;;;;;;5057697;28;20030;-68
2021/12/19 07:42:12;;;;;;;21.85;9.77;;;4.00;99.90;;;;;;5050489;28;20029;-67
2021/12/19 07:44:38;;;;;;;19.17;8.68;;;3.90;99.90;;;;;;5037191;28;20029;-67
2021/12/19 07:47:10;;;;;;;22.75;10.05;;;3.90;99.90;;;;;;5054607;28;20033;-66
2021/12/19 07:49:36;;;;;;;17.65;8.00;;;3.90;99.90;;;;;;5055113;28;20017;-61
2021/12/19 07:52:02;;;;;;;18.40;8.70;;;3.90;99.90;;;;;;5055387;28;20025;-66
2021/12/19 07:54:28;;;;;;;15.85;8.07;;;4.00;99.90;;;;;;5056548;28;20029;-64
2021/12/19 07:56:54;;;;;;;16.33;7.97;;;3.90;99.90;;;;;;5054897;28;20036;-67
2021/12/19 07:59:20;;;;;;;14.97;8.30;;;3.90;99.90;;;;;;5055406;28;20260;-67
2021/12/19 08:01:45;;;;;;;15.33;8.03;;;3.90;99.90;;;;;;5053710;28;20021;-63
2021/12/19 08:04:11;;;;;;;16.07;8.50;;;3.90;99.90;;;;;;5054481;28;20744;-63
2021/12/19 08:06:37;;;;;;;17.07;8.77;;;3.90;99.90;;;;;;5054480;28;20755;-64
2021/12/19 08:09:20;;;;;;;18.33;8.45;;;3.80;99.90;;;;;;5036824;28;20031;-63
2021/12/19 08:11:46;;;;;;;16.33;7.32;;;3.80;99.90;;;;;;5053885;28;20147;-64
2021/12/19 08:14:14;;;;;;;14.93;7.03;;;3.90;99.90;;;;;;5036313;28;20128;-69
2021/12/19 08:16:42;;;;;;;16.15;7.53;;;4.00;99.90;;;;;;5036335;28;20029;-68
2021/12/19 08:19:08;;;;;;;14.02;7.07;;;4.00;99.90;;;;;;5037002;28;20112;-72
2021/12/19 08:21:34;;;;;;;19.53;9.27;;;4.10;99.90;;;;;;5056812;28;20056;-70
2021/12/19 08:24:02;;;;;;;15.07;7.57;;;4.00;99.90;;;;;;5057517;28;20295;-71
2021/12/19 08:26:29;;;;;;;14.07;7.53;;;3.90;99.90;;;;;;5055638;28;20477;-70
2021/12/19 08:28:54;;;;;;;15.38;7.82;;;4.10;99.90;;;;;;5037050;28;20053;-67
2021/12/19 08:31:21;;;;;;;19.03;8.90;;;4.00;99.90;;;;;;5058272;28;20067;-70
2021/12/19 08:33:47;;;;;;;14.85;8.00;;;4.00;99.90;;;;;;5038888;28;20039;-67
2021/12/19 08:36:14;;;;;;;16.08;8.10;;;4.00;99.90;;;;;;5054020;28;20478;-65
2021/12/19 08:38:40;;;;;;;23.08;10.02;;;3.90;99.90;;;;;;5036249;28;20375;-67
2021/12/19 08:41:05;;;;;;;16.87;7.93;;;4.00;99.90;;;;;;5054139;28;20032;-67
2021/12/19 08:43:31;;;;;;;17.00;8.90;;;4.20;99.90;;;;;;5054036;28;20295;-67
2021/12/19 08:45:57;;;;;;;15.20;7.40;;;4.20;99.90;;;;;;5054172;28;20488;-64
2021/12/19 08:48:23;;;;;;;12.80;6.82;;;4.20;99.90;;;;;;5036519;28;20021;-65
2021/12/19 08:50:49;;;;;;;16.17;8.17;;;4.30;99.90;;;;;;5037898;28;20032;-65
2021/12/19 08:53:15;;;;;;;20.00;9.88;;;4.20;99.90;;;;;;5056540;28;20203;-67
2021/12/19 08:55:43;;;;;;;16.45;8.85;;;4.20;99.90;;;;;;5037304;28;20163;-66
2021/12/19 08:58:10;;;;;;;12.75;7.03;;;4.10;99.90;;;;;;5054393;28;20090;-65
2021/12/19 09:00:35;;;;;;;;;;;4.10;99.90;;;;;;5054391;28;20049;-68
2021/12/19 09:03:01;;;;;;;12.68;6.65;;;4.00;99.90;;;;;;5053538;28;20375;-69
2021/12/19 09:05:29;;;;;;;20.98;10.50;;;4.10;99.90;;;;;;5057644;28;20017;-66
2021/12/19 09:07:55;;;;;;;16.80;7.95;;;4.00;99.90;;;;;;5053342;28;20029;-64
2021/12/19 09:10:21;;;;;;;14.18;7.35;;;4.20;99.90;;;;;;5054037;28;20432;-69
2021/12/19 09:12:48;;;;;;;12.77;6.53;;;4.10;99.90;;;;;;5053403;28;20083;-72
2021/12/19 09:15:14;;;;;;;14.70;7.47;;;4.00;99.90;;;;;;5036049;28;20448;-64
2021/12/19 09:17:40;;;;;;;17.00;7.30;;;4.00;99.90;;;;;;5053399;28;20021;-63
2021/12/19 09:20:07;;;;;;;17.53;9.50;;;3.90;99.90;;;;;;5036022;28;20077;-63
2021/12/19 09:22:33;;;;;;;15.23;8.00;;;4.00;99.90;;;;;;5053356;28;20287;-64
2021/12/19 09:24:59;;;;;;;14.65;7.30;;;4.00;99.90;;;;;;5053080;28;20024;-63
2021/12/19 09:27:25;;;;;;;11.90;6.77;;;4.10;99.90;;;;;;5053609;28;20431;-63
2021/12/19 09:29:52;;;;;;;13.02;6.60;;;4.00;99.90;;;;;;5053339;28;20017;-63
2021/12/19 09:32:18;;;;;;;10.90;6.53;;;4.10;99.90;;;;;;5035861;28;20028;-68
2021/12/19 09:34:43;;;;;;;11.60;5.82;;;4.20;99.90;;;;;;5053642;28;20021;-64
2021/12/19 09:37:09;;;;;;;13.47;6.33;;;4.30;99.90;;;;;;5035187;28;20040;-65
2021/12/19 09:39:35;;;;;;;11.63;6.53;;;4.20;99.90;;;;;;5035419;28;20037;-67
2021/12/19 09:42:09;;;;;;;10.48;5.20;;;4.30;99.90;;;;;;5053119;28;20033;-64
2021/12/19 09:44:36;;;;;;;11.02;5.82;;;4.30;99.90;;;;;;5035683;28;20405;-64
2021/12/19 09:47:04;;;;;;;13.20;6.65;;;4.30;99.90;;;;;;5053397;28;20296;-62
2021/12/19 09:49:29;;;;;;;12.75;5.80;;;4.30;99.90;;;;;;5055059;28;20078;-64
2021/12/19 09:51:55;;;;;;;10.83;6.30;;;4.20;99.90;;;;;;5054065;28;20021;-64
2021/12/19 09:54:22;;;;;;;15.63;7.90;;;4.20;99.90;;;;;;5053134;28;20597;-65
2021/12/19 09:56:49;;;;;;;12.85;6.60;;;4.10;99.90;;;;;;5052648;28;20754;-64
2021/12/19 09:59:18;;;;;;;10.93;6.40;;;4.10;99.90;;;;;;5053703;28;20397;-64
2021/12/19 10:01:44;;;;;;;10.98;6.05;;;4.10;99.90;;;;;;5053555;28;20052;-64
2021/12/19 10:04:27;;;;;;;11.20;6.72;;;4.10;99.90;;;;;;5035312;28;20018;-62
2021/12/19 10:07:11;;;;;;;10.85;5.55;;;4.10;99.90;;;;;;5053076;28;20099;-64
2021/12/19 10:09:43;;;;;;;12.00;5.78;;;4.20;99.90;;;;;;5052870;28;20040;-64
2021/12/19 10:12:50;;;;;;;10.50;5.65;;;4.20;99.90;;;;;;5052962;28;20029;-64
2021/12/19 10:15:12;;;;;;;12.55;6.25;;;4.10;99.90;;;;;;5051119;28;20419;-65
2021/12/19 10:17:38;;;;;;;15.20;6.30;;;4.20;99.90;;;;;;5036197;28;20053;-64
2021/12/19 10:20:09;;;;;;;11.35;6.53;;;4.10;99.90;;;;;;5057807;28;20085;-66
2021/12/19 10:22:37;;;;;;;14.80;7.00;;;4.30;99.90;;;;;;5056806;28;20022;-69
2021/12/19 10:25:30;;;;;;;16.15;6.32;;;4.20;99.90;;;;;;5037370;28;20025;-66
2021/12/19 10:28:06;;;;;;;12.68;6.45;;;4.20;99.90;;;;;;5057299;28;20105;-64
2021/12/19 10:30:35;;;;;;;14.25;6.80;;;4.20;99.90;;;;;;5058329;28;20493;-65
2021/12/19 10:33:12;;;;;;;14.98;8.05;;;4.20;99.90;;;;;;5040346;28;20098;-65
2021/12/19 10:35:39;;;;;;;;;;;4.10;99.90;;;;;;5058214;28;20029;-66
2021/12/19 10:38:20;;;;;;;13.93;7.57;;;4.10;99.90;;;;;;5039906;28;19904;-66
2021/12/19 10:41:24;;;;;;;15.10;7.32;;;4.10;99.90;;;;;;5058274;28;20036;-64
2021/12/19 10:43:58;;;;;;;13.50;7.40;;;4.10;99.90;;;;;;5052330;28;20126;-67
2021/12/19 10:46:37;;;;;;;14.00;7.72;;;4.20;99.90;;;;;;5042193;28;20033;-68
2021/12/19 10:49:04;;;;;;;15.02;7.60;;;4.30;99.90;;;;;;5039074;28;20025;-65
2021/12/19 10:51:36;;;;;;;15.55;7.82;;;4.10;99.90;;;;;;5056997;28;20474;-64
2021/12/19 10:54:04;;;;;;;15.80;8.73;;;4.10;99.90;;;;;;5058042;28;20021;-67
2021/12/19 10:56:33;;;;;;;16.10;7.72;;;4.10;99.90;;;;;;5058175;28;20547;-66
2021/12/19 10:59:04;;;;;;;16.80;7.95;;;4.10;99.90;;;;;;5058080;28;20021;-65
2021/12/19 11:01:38;;;;;;;16.83;8.55;;;4.00;99.90;;;;;;5039951;28;20051;-65
2021/12/19 11:04:07;;;;;;;17.95;8.38;;;4.00;99.90;;;;;;5058768;28;20036;-65
2021/12/19 11:06:44;;;;;;;16.48;8.57;;;4.10;99.90;;;;;;5058835;28;20110;-63
2021/12/19 11:09:21;;;;;;;20.07;10.50;;;4.00;99.90;;;;;;5057906;28;20025;-65
2021/12/19 11:11:54;;;;;;;19.65;9.57;;;4.10;99.90;;;;;;5056447;28;20271;-65
2021/12/19 11:14:51;;;;;;;16.55;8.82;;;4.10;99.90;;;;;;5057035;28;20035;-64
2021/12/19 11:17:24;;;;;;;17.63;8.65;;;4.20;99.90;;;;;;5056123;28;20061;-64
2021/12/19 11:19:52;;;;;;;18.70;8.90;;;4.10;99.90;;;;;;5056270;28;20036;-66
2021/12/19 11:22:26;;;;;;;17.52;8.88;;;4.10;99.90;;;;;;5055795;28;20055;-61
2021/12/19 11:25:09;;;;;;;16.00;9.00;;;4.10;99.90;;;;;;5056076;28;20018;-62
2021/12/19 11:27:36;;;;;;;18.02;9.38;;;4.10;99.90;;;;;;5037952;28;20025;-61
2021/12/19 11:30:04;;;;;;;17.20;8.55;;;4.20;99.90;;;;;;5055708;28;20032;-62
2021/12/19 11:32:43;;;;;;;19.38;9.77;;;4.20;99.90;;;;;;5055011;28;20037;-62
2021/12/19 11:35:18;;;;;;;16.67;9.45;;;4.30;99.90;;;;;;5055389;28;20035;-62
2021/12/19 11:38:07;;;;;;;17.73;8.63;;;4.30;99.90;;;;;;5053926;28;20052;-61
2021/12/19 11:40:37;;;;;;;19.45;9.25;;;4.40;99.90;;;;;;5037253;28;20055;-63
2021/12/19 11:43:05;;;;;;;16.25;9.13;;;4.20;99.90;;;;;;5054382;28;20025;-64
2021/12/19 11:45:39;;;;;;;17.73;9.75;;;4.20;99.90;;;;;;5037030;28;20114;-63
2021/12/19 11:48:16;;;;;;;20.75;10.90;;;4.20;99.90;;;;;;5037400;28;20476;-63
2021/12/19 11:50:54;;;;;;;22.38;11.95;;;4.20;99.90;;;;;;5055565;28;20072;-62
2021/12/19 11:53:24;;;;;;;18.95;10.18;;;4.10;99.90;;;;;;5055254;28;20033;-62
2021/12/19 11:55:55;;;;;;;17.80;9.80;;;4.20;99.90;;;;;;5055193;28;20495;-62
2021/12/19 11:58:27;;;;;;;22.75;10.82;;;4.30;99.90;;;;;;5055374;28;20428;-59
2021/12/19 12:00:59;;;;;;;21.65;10.80;;;4.50;99.90;;;;;;5055023;28;20029;-62
2021/12/19 12:03:31;;;;;;;28.45;14.20;;;4.40;99.90;;;;;;5054856;28;20071;-63
2021/12/19 12:06:09;;;;;;;20.58;10.13;;;4.40;99.90;;;;;;5054843;28;20374;-60
2021/12/19 12:08:35;;;;;;;18.67;9.57;;;4.40;99.90;;;;;;5054730;28;20408;-65
2021/12/19 12:11:04;;;;;;;17.23;9.13;;;4.30;99.90;;;;;;5054867;28;20017;-63
2021/12/19 12:13:36;;;;;;;15.23;7.95;;;4.40;99.90;;;;;;5039120;28;20032;-65
2021/12/19 12:16:19;;;;;;;18.08;8.82;;;4.30;99.90;;;;;;5054922;28;20470;-63
2021/12/19 12:18:45;;;;;;;17.02;9.25;;;4.20;99.90;;;;;;5054509;28;20029;-62
2021/12/19 12:21:25;;;;;;;14.05;7.60;;;4.30;99.90;;;;;;5054240;28;20059;-66
2021/12/19 12:23:54;;;;;;;16.60;8.05;;;4.30;99.90;;;;;;5035945;28;20082;-66
2021/12/19 12:26:37;;;;;;;19.73;9.82;;;4.40;99.90;;;;;;5054068;28;20075;-62
2021/12/19 12:29:04;;;;;;;18.00;8.90;;;4.30;99.90;;;;;;5054058;28;20035;-62
2021/12/19 12:31:30;;;;;;;17.88;9.02;;;4.30;99.90;;;;;;5054037;28;20032;-64
2021/12/19 12:33:57;;;;;;;15.13;8.88;;;4.40;99.90;;;;;;5036357;28;20048;-61
2021/12/19 12:36:24;;;;;;;14.05;7.85;;;4.40;99.90;;;;;;5053756;28;20096;-60
2021/12/19 12:38:53;;;;;;;14.98;8.75;;;4.30;99.90;;;;;;5054132;28;20036;-61
2021/12/19 12:44:21;;;;;;;17.10;8.95;;;4.20;99.90;;;;;;5023717;28;20124;-63
2021/12/19 12:46:48;;;;;;;14.90;8.15;;;4.40;99.90;;;;;;5054265;28;20029;-61
2021/12/19 12:49:34;;;;;;;18.40;8.70;;;4.40;99.90;;;;;;5053881;28;20032;-64
2021/12/19 12:52:04;;;;;;;15.85;8.02;;;4.30;99.90;;;;;;5054320;28;20028;-59
2021/12/19 12:54:35;;;;;;;17.48;9.00;;;4.30;99.90;;;;;;5054426;28;20362;-60
2021/12/19 12:57:06;;;;;;;14.20;8.23;;;4.20;99.90;;;;;;5053965;28;20021;-62
2021/12/19 12:59:38;;;;;;;15.50;8.43;;;4.20;99.90;;;;;;5053455;28;20078;-63
2021/12/19 13:02:15;;;;;;;14.93;7.40;;;4.20;99.90;;;;;;5053598;28;20490;-66
2021/12/19 13:04:46;;;;;;;13.88;7.25;;;4.30;99.90;;;;;;5035529;28;20021;-64
2021/12/19 13:07:14;;;;;;;17.10;8.95;;;4.20;99.90;;;;;;5055064;28;20045;-68
2021/12/19 13:09:42;;;;;;;12.93;7.47;;;4.30;99.90;;;;;;5037287;28;20497;-64
2021/12/19 13:12:23;;;;;;;17.08;8.68;;;4.30;99.90;;;;;;5054453;28;20116;-65
2021/12/19 13:14:57;;;;;;;22.45;9.32;;;4.30;99.90;;;;;;5053794;28;20462;-67
2021/12/19 13:17:38;;;;;;;16.38;7.63;;;4.20;99.90;;;;;;5054704;28;20393;-66
2021/12/19 13:20:12;;;;;;;13.77;8.00;;;4.30;99.90;;;;;;5055966;28;20107;-67
2021/12/19 13:22:47;;;;;;;16.95;8.43;;;4.30;99.90;;;;;;5054896;28;20036;-65
2021/12/19 13:25:19;;;;;;;16.55;7.95;;;4.20;99.90;;;;;;5056405;28;20518;-68
2021/12/19 13:27:46;;;;;;;14.73;8.15;;;4.20;99.90;;;;;;5055538;28;20061;-63
2021/12/19 13:30:16;;;;;;;15.45;8.95;;;4.30;99.90;;;;;;5035805;28;20024;-66
2021/12/19 13:33:03;;;;;;;16.25;8.85;;;4.20;99.90;;;;;;5054275;28;20090;-64
2021/12/19 13:35:35;;;;;;;16.77;8.75;;;4.20;99.90;;;;;;5035503;28;20025;-64
2021/12/19 13:38:14;;;;;;;15.55;8.73;;;4.20;99.90;;;;;;5053758;28;20516;-64
2021/12/19 13:40:51;;;;;;;16.00;8.20;;;4.10;99.90;;;;;;5053859;28;20021;-65
2021/12/19 13:43:22;;;;;;;15.55;7.57;;;4.10;99.90;;;;;;5053682;28;20029;-65
2021/12/19 13:45:50;;;;;;;14.75;7.03;;;4.20;99.90;;;;;;5053245;28;20033;-65
2021/12/19 13:48:19;;;;;;;15.15;8.27;;;4.30;99.90;;;;;;5035319;28;20022;-61
2021/12/19 13:51:07;;;;;;;16.38;8.48;;;4.30;99.90;;;;;;5054014;28;20075;-63
2021/12/19 13:53:36;;;;;;;15.35;8.15;;;4.20;99.90;;;;;;5053190;28;20119;-63
2021/12/19 13:56:13;;;;;;;14.90;7.47;;;4.20;99.90;;;;;;5062413;28;20418;-63
2021/12/19 13:58:46;;;;;;;14.68;7.30;;;4.20;99.90;;;;;;5041687;28;20025;-63
2021/12/19 14:01:30;;;;;;;14.77;7.07;;;4.10;99.90;;;;;;5038769;28;20035;-63
2021/12/19 14:03:58;;;;;;;14.00;7.57;;;4.00;99.90;;;;;;5057457;28;20025;-64
2021/12/19 14:06:29;;;;;;;12.60;7.50;;;4.00;99.90;;;;;;5057163;28;20024;-64